sensor_id;sensor_type;location;lat;lon;timestamp;temperature;humidity
20728;DHT22;10525;50.154;8.198;2022-12-29T00:02:09;8.50;99.90
20728;DHT22;10525;50.154;8.198;2022-12-29T00:04:36;8.50;99.90
20728;DHT22;10525;50.154;8.198;2022-12-29T00:07:05;8.50;99.90
20728;DHT22;10525;50.154;8.198;2022-12-29T00:09:32;8.50;99.90
20728;DHT22;10525;50.154;8.198;2022-12-29T00:11:59;8.50;99.90
20728;DHT22;10525;50.154;8.198;2022-12-29T00:14:26;8.60;99.90
20728;DHT22;10525;50.154;8.198;2022-12-29T00:17:11;8.60;99.90
20728;DHT22;10525;50.154;8.198;2022-12-29T00:19:37;8.70;99.90
20728;DHT22;10525;50.154;8.198;2022-12-29T00:22:23;8.60;99.90
20728;DHT22;10525;50.154;8.198;2022-12-29T00:25:08;8.70;99.90
20728;DHT22;10525;50.154;8.198;2022-12-29T00:27:53;8.70;99.90
20728;DHT22;10525;50.154;8.198;2022-12-29T00:30:37;8.70;99.90
20728;DHT22;10525;50.154;8.198;2022-12-29T00:33:22;8.70;99.90
20728;DHT22;10525;50.154;8.198;2022-12-29T00:36:13;8.70;99.90
20728;DHT22;10525;50.154;8.198;2022-12-29T00:38:45;8.70;99.90
20728;DHT22;10525;50.154;8.198;2022-12-29T00:41:30;8.70;99.90
20728;DHT22;10525;50.154;8.198;2022-12-29T00:44:15;8.70;99.90
20728;DHT22;10525;50.154;8.198;2022-12-29T00:46:42;8.60;99.90
20728;DHT22;10525;50.154;8.198;2022-12-29T00:49:12;8.60;99.90
20728;DHT22;10525;50.154;8.198;2022-12-29T00:51:57;8.60;99.90
20728;DHT22;10525;50.154;8.198;2022-12-29T00:54:25;8.60;99.90
20728;DHT22;10525;50.154;8.198;2022-12-29T00:56:53;8.60;99.90
20728;DHT22;10525;50.154;8.198;2022-12-29T00:59:19;8.50;99.90
20728;DHT22;10525;50.154;8.198;2022-12-29T01:01:47;8.50;99.90
20728;DHT22;10525;50.154;8.198;2022-12-29T01:04:14;8.60;99.90
20728;DHT22;10525;50.154;8.198;2022-12-29T01:06:41;8.50;99.90
20728;DHT22;10525;50.154;8.198;2022-12-29T01:09:08;8.50;99.90
20728;DHT22;10525;50.154;8.198;2022-12-29T01:11:54;8.50;99.90
20728;DHT22;10525;50.154;8.198;2022-12-29T01:14:22;8.50;99.90
20728;DHT22;10525;50.154;8.198;2022-12-29T01:16:49;8.50;99.90
20728;DHT22;10525;50.154;8.198;2022-12-29T01:19:16;8.50;99.90
20728;DHT22;10525;50.154;8.198;2022-12-29T01:21:43;8.50;99.90
20728;DHT22;10525;50.154;8.198;2022-12-29T01:24:10;8.50;99.90
20728;DHT22;10525;50.154;8.198;2022-12-29T01:26:37;8.50;99.90
20728;DHT22;10525;50.154;8.198;2022-12-29T01:29:05;8.50;99.90
20728;DHT22;10525;50.154;8.198;2022-12-29T01:31:31;8.40;99.90
20728;DHT22;10525;50.154;8.198;2022-12-29T01:33:58;8.50;99.90
20728;DHT22;10525;50.154;8.198;2022-12-29T01:36:25;8.50;99.90
20728;DHT22;10525;50.154;8.198;2022-12-29T01:38:52;8.40;99.90
20728;DHT22;10525;50.154;8.198;2022-12-29T01:41:19;8.40;99.90
20728;DHT22;10525;50.154;8.198;2022-12-29T01:43:47;8.40;99.90
20728;DHT22;10525;50.154;8.198;2022-12-29T01:46:25;8.40;99.90
20728;DHT22;10525;50.154;8.198;2022-12-29T01:48:55;8.40;99.90
20728;DHT22;10525;50.154;8.198;2022-12-29T01:51:24;8.40;99.90
20728;DHT22;10525;50.154;8.198;2022-12-29T01:53:52;8.40;99.90
20728;DHT22;10525;50.154;8.198;2022-12-29T01:56:21;8.40;99.90
20728;DHT22;10525;50.154;8.198;2022-12-29T01:58:51;8.40;99.90
20728;DHT22;10525;50.154;8.198;2022-12-29T02:01:22;8.50;99.90
20728;DHT22;10525;50.154;8.198;2022-12-29T02:03:49;8.50;99.90
20728;DHT22;10525;50.154;8.198;2022-12-29T02:06:20;8.50;99.90
20728;DHT22;10525;50.154;8.198;2022-12-29T02:08:49;8.50;99.90
20728;DHT22;10525;50.154;8.198;2022-12-29T02:11:17;8.50;99.90
20728;DHT22;10525;50.154;8.198;2022-12-29T02:13:44;8.40;99.90
20728;DHT22;10525;50.154;8.198;2022-12-29T02:16:20;8.40;99.90
20728;DHT22;10525;50.154;8.198;2022-12-29T02:18:59;8.50;99.90
20728;DHT22;10525;50.154;8.198;2022-12-29T02:21:45;8.50;99.90
20728;DHT22;10525;50.154;8.198;2022-12-29T02:27:31;8.40;99.90
20728;DHT22;10525;50.154;8.198;2022-12-29T02:30:08;8.40;99.90
20728;DHT22;10525;50.154;8.198;2022-12-29T02:32:45;8.40;99.90
20728;DHT22;10525;50.154;8.198;2022-12-29T02:35:23;8.40;99.90
20728;DHT22;10525;50.154;8.198;2022-12-29T02:37:58;8.40;99.90
20728;DHT22;10525;50.154;8.198;2022-12-29T02:40:29;8.40;99.90
20728;DHT22;10525;50.154;8.198;2022-12-29T02:43:03;8.40;99.90
20728;DHT22;10525;50.154;8.198;2022-12-29T02:45:35;8.40;99.90
20728;DHT22;10525;50.154;8.198;2022-12-29T02:48:10;8.40;99.90
20728;DHT22;10525;50.154;8.198;2022-12-29T02:50:43;8.40;99.90
20728;DHT22;10525;50.154;8.198;2022-12-29T02:53:17;8.50;99.90
20728;DHT22;10525;50.154;8.198;2022-12-29T02:56:05;8.40;99.90
20728;DHT22;10525;50.154;8.198;2022-12-29T02:58:31;8.50;99.90
20728;DHT22;10525;50.154;8.198;2022-12-29T03:01:13;8.40;99.90
20728;DHT22;10525;50.154;8.198;2022-12-29T03:03:51;8.40;99.90
20728;DHT22;10525;50.154;8.198;2022-12-29T03:06:33;8.50;99.90
20728;DHT22;10525;50.154;8.198;2022-12-29T03:09:11;8.40;99.90
20728;DHT22;10525;50.154;8.198;2022-12-29T03:11:52;8.50;99.90
20728;DHT22;10525;50.154;8.198;2022-12-29T03:14:44;8.40;99.90
20728;DHT22;10525;50.154;8.198;2022-12-29T03:17:38;8.50;99.90
20728;DHT22;10525;50.154;8.198;2022-12-29T03:20:10;8.40;99.90
20728;DHT22;10525;50.154;8.198;2022-12-29T03:22:42;8.40;99.90
20728;DHT22;10525;50.154;8.198;2022-12-29T03:25:14;8.50;99.90
20728;DHT22;10525;50.154;8.198;2022-12-29T03:27:45;8.50;99.90
20728;DHT22;10525;50.154;8.198;2022-12-29T03:30:13;8.50;99.90
20728;DHT22;10525;50.154;8.198;2022-12-29T03:32:43;8.40;99.90
20728;DHT22;10525;50.154;8.198;2022-12-29T03:35:15;8.40;99.90
20728;DHT22;10525;50.154;8.198;2022-12-29T03:37:45;8.50;99.90
20728;DHT22;10525;50.154;8.198;2022-12-29T03:40:16;8.50;99.90
20728;DHT22;10525;50.154;8.198;2022-12-29T03:42:44;8.40;99.90
20728;DHT22;10525;50.154;8.198;2022-12-29T03:45:11;8.50;99.90
20728;DHT22;10525;50.154;8.198;2022-12-29T03:47:37;8.50;99.90
20728;DHT22;10525;50.154;8.198;2022-12-29T03:50:05;8.50;99.90
20728;DHT22;10525;50.154;8.198;2022-12-29T03:52:35;8.40;99.90
20728;DHT22;10525;50.154;8.198;2022-12-29T03:55:01;8.50;99.90
20728;DHT22;10525;50.154;8.198;2022-12-29T03:57:28;8.50;99.90
20728;DHT22;10525;50.154;8.198;2022-12-29T03:59:55;8.50;99.90
20728;DHT22;10525;50.154;8.198;2022-12-29T04:02:21;8.40;99.90
20728;DHT22;10525;50.154;8.198;2022-12-29T04:04:49;8.40;99.90
20728;DHT22;10525;50.154;8.198;2022-12-29T04:07:16;8.50;99.90
20728;DHT22;10525;50.154;8.198;2022-12-29T04:09:44;8.50;99.90
20728;DHT22;10525;50.154;8.198;2022-12-29T04:12:10;8.50;99.90
20728;DHT22;10525;50.154;8.198;2022-12-29T04:14:37;8.50;99.90
20728;DHT22;10525;50.154;8.198;2022-12-29T04:17:04;8.50;99.90
20728;DHT22;10525;50.154;8.198;2022-12-29T04:19:30;8.50;99.90
20728;DHT22;10525;50.154;8.198;2022-12-29T04:21:57;8.50;99.90
20728;DHT22;10525;50.154;8.198;2022-12-29T04:24:24;8.50;99.90
20728;DHT22;10525;50.154;8.198;2022-12-29T04:26:52;8.50;99.90
20728;DHT22;10525;50.154;8.198;2022-12-29T04:29:18;8.50;99.90
20728;DHT22;10525;50.154;8.198;2022-12-29T04:31:45;8.50;99.90
20728;DHT22;10525;50.154;8.198;2022-12-29T04:34:12;8.50;99.90
20728;DHT22;10525;50.154;8.198;2022-12-29T04:36:40;8.50;99.90
20728;DHT22;10525;50.154;8.198;2022-12-29T04:39:07;8.50;99.90
20728;DHT22;10525;50.154;8.198;2022-12-29T04:41:34;8.50;99.90
20728;DHT22;10525;50.154;8.198;2022-12-29T04:44:02;8.50;99.90
20728;DHT22;10525;50.154;8.198;2022-12-29T04:46:28;8.50;99.90
20728;DHT22;10525;50.154;8.198;2022-12-29T04:48:55;8.50;99.90
20728;DHT22;10525;50.154;8.198;2022-12-29T04:51:22;8.50;99.90
20728;DHT22;10525;50.154;8.198;2022-12-29T04:53:48;8.50;99.90
20728;DHT22;10525;50.154;8.198;2022-12-29T04:56:15;8.50;99.90
20728;DHT22;10525;50.154;8.198;2022-12-29T04:58:42;8.60;99.90
20728;DHT22;10525;50.154;8.198;2022-12-29T05:01:10;8.50;99.90
20728;DHT22;10525;50.154;8.198;2022-12-29T05:03:36;8.50;99.90
20728;DHT22;10525;50.154;8.198;2022-12-29T05:06:03;8.50;99.90
20728;DHT22;10525;50.154;8.198;2022-12-29T05:08:30;8.50;99.90
20728;DHT22;10525;50.154;8.198;2022-12-29T05:10:57;8.50;99.90
20728;DHT22;10525;50.154;8.198;2022-12-29T05:13:23;8.50;99.90
20728;DHT22;10525;50.154;8.198;2022-12-29T05:15:51;8.50;99.90
20728;DHT22;10525;50.154;8.198;2022-12-29T05:18:19;8.50;99.90
20728;DHT22;10525;50.154;8.198;2022-12-29T05:20:46;8.60;99.90
20728;DHT22;10525;50.154;8.198;2022-12-29T05:23:13;8.60;99.90
20728;DHT22;10525;50.154;8.198;2022-12-29T05:25:40;8.60;99.90
20728;DHT22;10525;50.154;8.198;2022-12-29T05:28:07;8.60;99.90
20728;DHT22;10525;50.154;8.198;2022-12-29T05:30:34;8.60;99.90
20728;DHT22;10525;50.154;8.198;2022-12-29T05:33:00;8.60;99.90
20728;DHT22;10525;50.154;8.198;2022-12-29T05:35:28;8.60;99.90
20728;DHT22;10525;50.154;8.198;2022-12-29T05:37:55;8.60;99.90
20728;DHT22;10525;50.154;8.198;2022-12-29T05:40:22;8.60;99.90
20728;DHT22;10525;50.154;8.198;2022-12-29T05:42:48;8.50;99.90
20728;DHT22;10525;50.154;8.198;2022-12-29T05:45:15;8.50;99.90
20728;DHT22;10525;50.154;8.198;2022-12-29T05:47:42;8.60;99.90
20728;DHT22;10525;50.154;8.198;2022-12-29T05:50:08;8.50;99.90
20728;DHT22;10525;50.154;8.198;2022-12-29T05:52:36;8.60;99.90
20728;DHT22;10525;50.154;8.198;2022-12-29T05:55:04;8.60;99.90
20728;DHT22;10525;50.154;8.198;2022-12-29T05:57:30;8.60;99.90
20728;DHT22;10525;50.154;8.198;2022-12-29T05:59:57;8.50;99.90
20728;DHT22;10525;50.154;8.198;2022-12-29T06:02:24;8.50;99.90
20728;DHT22;10525;50.154;8.198;2022-12-29T06:04:50;8.50;99.90
20728;DHT22;10525;50.154;8.198;2022-12-29T06:07:17;8.50;99.90
20728;DHT22;10525;50.154;8.198;2022-12-29T06:09:45;8.50;99.90
20728;DHT22;10525;50.154;8.198;2022-12-29T06:12:12;8.50;99.90
20728;DHT22;10525;50.154;8.198;2022-12-29T06:14:38;8.60;99.90
20728;DHT22;10525;50.154;8.198;2022-12-29T06:17:05;8.50;99.90
20728;DHT22;10525;50.154;8.198;2022-12-29T06:19:32;8.50;99.90
20728;DHT22;10525;50.154;8.198;2022-12-29T06:21:58;8.50;99.90
20728;DHT22;10525;50.154;8.198;2022-12-29T06:24:25;8.60;99.90
20728;DHT22;10525;50.154;8.198;2022-12-29T06:26:53;8.60;99.90
20728;DHT22;10525;50.154;8.198;2022-12-29T06:29:20;8.60;99.90
20728;DHT22;10525;50.154;8.198;2022-12-29T06:31:47;8.60;99.90
20728;DHT22;10525;50.154;8.198;2022-12-29T06:34:15;8.60;99.90
20728;DHT22;10525;50.154;8.198;2022-12-29T06:36:41;8.60;99.90
20728;DHT22;10525;50.154;8.198;2022-12-29T06:39:09;8.60;99.90
20728;DHT22;10525;50.154;8.198;2022-12-29T06:41:36;8.60;99.90
20728;DHT22;10525;50.154;8.198;2022-12-29T06:44:04;8.60;99.90
20728;DHT22;10525;50.154;8.198;2022-12-29T06:46:31;8.60;99.90
20728;DHT22;10525;50.154;8.198;2022-12-29T06:48:57;8.70;99.90
20728;DHT22;10525;50.154;8.198;2022-12-29T06:51:24;8.70;99.90
20728;DHT22;10525;50.154;8.198;2022-12-29T06:53:51;8.60;99.90
20728;DHT22;10525;50.154;8.198;2022-12-29T06:56:17;8.60;99.90
20728;DHT22;10525;50.154;8.198;2022-12-29T06:58:44;8.60;99.90
20728;DHT22;10525;50.154;8.198;2022-12-29T07:01:12;8.60;99.90
20728;DHT22;10525;50.154;8.198;2022-12-29T07:03:41;8.60;99.90
20728;DHT22;10525;50.154;8.198;2022-12-29T07:06:08;8.60;99.90
20728;DHT22;10525;50.154;8.198;2022-12-29T07:08:34;8.60;99.90
20728;DHT22;10525;50.154;8.198;2022-12-29T07:11:01;8.50;99.90
20728;DHT22;10525;50.154;8.198;2022-12-29T07:13:27;8.50;99.90
20728;DHT22;10525;50.154;8.198;2022-12-29T07:15:54;8.60;99.90
20728;DHT22;10525;50.154;8.198;2022-12-29T07:18:22;8.60;99.90
20728;DHT22;10525;50.154;8.198;2022-12-29T07:20:49;8.60;99.90
20728;DHT22;10525;50.154;8.198;2022-12-29T07:23:16;8.60;99.90
20728;DHT22;10525;50.154;8.198;2022-12-29T07:25:42;8.60;99.90
20728;DHT22;10525;50.154;8.198;2022-12-29T07:28:09;8.60;99.90
20728;DHT22;10525;50.154;8.198;2022-12-29T07:30:37;8.60;99.90
20728;DHT22;10525;50.154;8.198;2022-12-29T07:33:04;8.60;99.90
20728;DHT22;10525;50.154;8.198;2022-12-29T07:35:33;8.60;99.90
20728;DHT22;10525;50.154;8.198;2022-12-29T07:38:00;8.60;99.90
20728;DHT22;10525;50.154;8.198;2022-12-29T07:40:26;8.70;99.90
20728;DHT22;10525;50.154;8.198;2022-12-29T07:42:53;8.70;99.90
20728;DHT22;10525;50.154;8.198;2022-12-29T07:45:19;8.70;99.90
20728;DHT22;10525;50.154;8.198;2022-12-29T07:47:47;8.80;99.90
20728;DHT22;10525;50.154;8.198;2022-12-29T07:50:14;8.80;99.90
20728;DHT22;10525;50.154;8.198;2022-12-29T07:52:42;8.80;99.90
20728;DHT22;10525;50.154;8.198;2022-12-29T07:55:10;8.80;99.90
20728;DHT22;10525;50.154;8.198;2022-12-29T07:57:37;8.90;99.90
20728;DHT22;10525;50.154;8.198;2022-12-29T08:00:04;8.80;99.90
20728;DHT22;10525;50.154;8.198;2022-12-29T08:02:31;8.80;99.90
20728;DHT22;10525;50.154;8.198;2022-12-29T08:04:57;8.80;99.90
20728;DHT22;10525;50.154;8.198;2022-12-29T08:07:24;8.80;99.90
20728;DHT22;10525;50.154;8.198;2022-12-29T08:09:52;8.80;99.90
20728;DHT22;10525;50.154;8.198;2022-12-29T08:12:19;8.90;99.90
20728;DHT22;10525;50.154;8.198;2022-12-29T08:14:45;8.90;99.90
20728;DHT22;10525;50.154;8.198;2022-12-29T08:17:12;9.00;99.90
20728;DHT22;10525;50.154;8.198;2022-12-29T08:19:39;9.00;99.90
20728;DHT22;10525;50.154;8.198;2022-12-29T08:22:07;9.00;99.90
20728;DHT22;10525;50.154;8.198;2022-12-29T08:24:34;9.00;99.90
20728;DHT22;10525;50.154;8.198;2022-12-29T08:27:02;9.00;99.90
20728;DHT22;10525;50.154;8.198;2022-12-29T08:29:29;9.10;99.90
20728;DHT22;10525;50.154;8.198;2022-12-29T08:31:56;9.10;99.90
20728;DHT22;10525;50.154;8.198;2022-12-29T08:34:22;9.10;99.90
20728;DHT22;10525;50.154;8.198;2022-12-29T08:36:49;9.10;99.90
20728;DHT22;10525;50.154;8.198;2022-12-29T08:39:16;9.10;99.90
20728;DHT22;10525;50.154;8.198;2022-12-29T08:41:42;9.10;99.90
20728;DHT22;10525;50.154;8.198;2022-12-29T08:44:10;9.10;99.90
20728;DHT22;10525;50.154;8.198;2022-12-29T08:46:37;9.10;99.90
20728;DHT22;10525;50.154;8.198;2022-12-29T08:49:03;9.10;99.90
20728;DHT22;10525;50.154;8.198;2022-12-29T08:51:30;9.10;99.90
20728;DHT22;10525;50.154;8.198;2022-12-29T08:53:57;9.10;99.90
20728;DHT22;10525;50.154;8.198;2022-12-29T08:56:24;9.20;99.90
20728;DHT22;10525;50.154;8.198;2022-12-29T08:58:51;9.20;99.90
20728;DHT22;10525;50.154;8.198;2022-12-29T09:01:19;9.20;99.90
20728;DHT22;10525;50.154;8.198;2022-12-29T09:03:46;9.30;99.90
20728;DHT22;10525;50.154;8.198;2022-12-29T09:06:14;9.30;99.90
20728;DHT22;10525;50.154;8.198;2022-12-29T09:08:41;9.30;99.90
20728;DHT22;10525;50.154;8.198;2022-12-29T09:11:09;9.30;99.90
20728;DHT22;10525;50.154;8.198;2022-12-29T09:13:36;9.30;99.90
20728;DHT22;10525;50.154;8.198;2022-12-29T09:16:04;9.40;99.90
20728;DHT22;10525;50.154;8.198;2022-12-29T09:18:32;9.40;99.90
20728;DHT22;10525;50.154;8.198;2022-12-29T09:20:59;9.40;99.90
20728;DHT22;10525;50.154;8.198;2022-12-29T09:23:27;9.40;99.90
20728;DHT22;10525;50.154;8.198;2022-12-29T09:25:54;9.50;99.90
20728;DHT22;10525;50.154;8.198;2022-12-29T09:28:21;9.60;99.90
20728;DHT22;10525;50.154;8.198;2022-12-29T09:30:48;9.60;99.90
20728;DHT22;10525;50.154;8.198;2022-12-29T09:33:15;9.60;99.90
20728;DHT22;10525;50.154;8.198;2022-12-29T09:35:44;9.60;99.90
20728;DHT22;10525;50.154;8.198;2022-12-29T09:38:11;9.60;99.90
20728;DHT22;10525;50.154;8.198;2022-12-29T09:40:38;9.60;99.90
20728;DHT22;10525;50.154;8.198;2022-12-29T09:43:17;9.60;99.90
20728;DHT22;10525;50.154;8.198;2022-12-29T09:45:52;9.70;99.90
20728;DHT22;10525;50.154;8.198;2022-12-29T09:48:24;9.70;99.90
20728;DHT22;10525;50.154;8.198;2022-12-29T09:50:57;9.70;99.90
20728;DHT22;10525;50.154;8.198;2022-12-29T09:53:28;9.70;99.90
20728;DHT22;10525;50.154;8.198;2022-12-29T09:55:57;9.60;99.90
20728;DHT22;10525;50.154;8.198;2022-12-29T09:58:30;9.60;99.90
20728;DHT22;10525;50.154;8.198;2022-12-29T10:01:02;9.60;99.90
20728;DHT22;10525;50.154;8.198;2022-12-29T10:03:40;9.50;99.90
20728;DHT22;10525;50.154;8.198;2022-12-29T10:06:13;9.50;99.90
20728;DHT22;10525;50.154;8.198;2022-12-29T10:08:44;9.50;99.90
20728;DHT22;10525;50.154;8.198;2022-12-29T10:11:23;9.50;99.90
20728;DHT22;10525;50.154;8.198;2022-12-29T10:14:04;9.50;99.90
20728;DHT22;10525;50.154;8.198;2022-12-29T10:16:39;9.50;99.90
20728;DHT22;10525;50.154;8.198;2022-12-29T10:22:19;9.80;99.90
20728;DHT22;10525;50.154;8.198;2022-12-29T10:24:51;9.80;99.90
20728;DHT22;10525;50.154;8.198;2022-12-29T10:27:20;10.00;99.90
20728;DHT22;10525;50.154;8.198;2022-12-29T10:29:49;10.00;99.90
20728;DHT22;10525;50.154;8.198;2022-12-29T10:32:24;10.20;99.90
20728;DHT22;10525;50.154;8.198;2022-12-29T10:34:54;10.30;99.90
20728;DHT22;10525;50.154;8.198;2022-12-29T10:37:29;10.30;99.90
20728;DHT22;10525;50.154;8.198;2022-12-29T10:39:58;10.40;99.90
20728;DHT22;10525;50.154;8.198;2022-12-29T10:42:27;10.50;99.90
20728;DHT22;10525;50.154;8.198;2022-12-29T10:44:55;10.50;99.90
20728;DHT22;10525;50.154;8.198;2022-12-29T10:47:25;10.50;99.90
20728;DHT22;10525;50.154;8.198;2022-12-29T10:49:54;10.50;99.90
20728;DHT22;10525;50.154;8.198;2022-12-29T10:52:26;10.50;99.90
20728;DHT22;10525;50.154;8.198;2022-12-29T10:54:55;10.50;99.90
20728;DHT22;10525;50.154;8.198;2022-12-29T10:57:27;10.60;99.90
20728;DHT22;10525;50.154;8.198;2022-12-29T10:59:55;10.60;99.90
20728;DHT22;10525;50.154;8.198;2022-12-29T11:05:23;10.60;99.90
20728;DHT22;10525;50.154;8.198;2022-12-29T11:07:58;10.50;99.90
20728;DHT22;10525;50.154;8.198;2022-12-29T11:10:31;10.40;99.90
20728;DHT22;10525;50.154;8.198;2022-12-29T11:13:03;10.40;99.90
20728;DHT22;10525;50.154;8.198;2022-12-29T11:15:39;10.30;99.90
20728;DHT22;10525;50.154;8.198;2022-12-29T11:18:18;10.40;99.90
20728;DHT22;10525;50.154;8.198;2022-12-29T11:20:44;10.40;99.90
20728;DHT22;10525;50.154;8.198;2022-12-29T11:23:29;10.40;99.90
20728;DHT22;10525;50.154;8.198;2022-12-29T11:26:07;10.40;99.90
20728;DHT22;10525;50.154;8.198;2022-12-29T11:28:35;10.40;99.90
20728;DHT22;10525;50.154;8.198;2022-12-29T11:31:03;10.30;99.90
20728;DHT22;10525;50.154;8.198;2022-12-29T11:33:31;10.20;99.90
20728;DHT22;10525;50.154;8.198;2022-12-29T11:36:01;10.30;99.90
20728;DHT22;10525;50.154;8.198;2022-12-29T11:38:34;10.30;99.90
20728;DHT22;10525;50.154;8.198;2022-12-29T11:41:02;10.20;99.90
20728;DHT22;10525;50.154;8.198;2022-12-29T11:43:31;10.40;99.90
20728;DHT22;10525;50.154;8.198;2022-12-29T11:45:59;10.40;99.90
20728;DHT22;10525;50.154;8.198;2022-12-29T11:48:31;10.40;99.90
20728;DHT22;10525;50.154;8.198;2022-12-29T11:50:59;10.40;99.90
20728;DHT22;10525;50.154;8.198;2022-12-29T11:53:30;10.40;99.90
20728;DHT22;10525;50.154;8.198;2022-12-29T11:56:03;10.40;99.90
20728;DHT22;10525;50.154;8.198;2022-12-29T11:58:32;10.50;99.90
20728;DHT22;10525;50.154;8.198;2022-12-29T12:01:01;10.50;99.90
20728;DHT22;10525;50.154;8.198;2022-12-29T12:03:32;10.50;99.90
20728;DHT22;10525;50.154;8.198;2022-12-29T12:06:01;10.50;99.90
20728;DHT22;10525;50.154;8.198;2022-12-29T12:08:35;10.40;99.90
20728;DHT22;10525;50.154;8.198;2022-12-29T12:11:09;10.40;99.90
20728;DHT22;10525;50.154;8.198;2022-12-29T12:13:39;10.40;99.90
20728;DHT22;10525;50.154;8.198;2022-12-29T12:16:12;10.40;99.90
20728;DHT22;10525;50.154;8.198;2022-12-29T12:18:44;10.50;99.90
20728;DHT22;10525;50.154;8.198;2022-12-29T12:21:26;10.50;99.90
20728;DHT22;10525;50.154;8.198;2022-12-29T12:24:05;10.50;99.90
20728;DHT22;10525;50.154;8.198;2022-12-29T12:26:42;10.50;99.90
20728;DHT22;10525;50.154;8.198;2022-12-29T12:29:14;10.60;99.90
20728;DHT22;10525;50.154;8.198;2022-12-29T12:31:46;10.60;99.90
20728;DHT22;10525;50.154;8.198;2022-12-29T12:34:19;10.70;99.90
20728;DHT22;10525;50.154;8.198;2022-12-29T12:37:09;10.80;99.90
20728;DHT22;10525;50.154;8.198;2022-12-29T12:39:46;10.80;99.90
20728;DHT22;10525;50.154;8.198;2022-12-29T12:42:24;10.80;99.90
20728;DHT22;10525;50.154;8.198;2022-12-29T12:45:00;10.80;99.90
20728;DHT22;10525;50.154;8.198;2022-12-29T12:47:43;10.80;99.90
20728;DHT22;10525;50.154;8.198;2022-12-29T12:50:25;10.80;99.90
20728;DHT22;10525;50.154;8.198;2022-12-29T12:53:08;10.90;99.90
20728;DHT22;10525;50.154;8.198;2022-12-29T12:55:51;10.80;99.90
20728;DHT22;10525;50.154;8.198;2022-12-29T12:58:27;10.80;99.90
20728;DHT22;10525;50.154;8.198;2022-12-29T13:01:07;10.80;99.90
20728;DHT22;10525;50.154;8.198;2022-12-29T13:03:47;10.90;99.90
20728;DHT22;10525;50.154;8.198;2022-12-29T13:06:24;10.90;99.90
20728;DHT22;10525;50.154;8.198;2022-12-29T13:09:12;10.90;99.90
20728;DHT22;10525;50.154;8.198;2022-12-29T13:11:53;10.90;99.90
20728;DHT22;10525;50.154;8.198;2022-12-29T13:14:35;10.90;99.90
20728;DHT22;10525;50.154;8.198;2022-12-29T13:17:07;11.00;99.90
20728;DHT22;10525;50.154;8.198;2022-12-29T13:19:40;11.00;99.90
20728;DHT22;10525;50.154;8.198;2022-12-29T13:22:10;11.00;99.90
20728;DHT22;10525;50.154;8.198;2022-12-29T13:24:50;11.00;99.90
20728;DHT22;10525;50.154;8.198;2022-12-29T13:27:24;11.10;99.90
20728;DHT22;10525;50.154;8.198;2022-12-29T13:30:00;11.10;99.90
20728;DHT22;10525;50.154;8.198;2022-12-29T13:32:36;11.00;99.90
20728;DHT22;10525;50.154;8.198;2022-12-29T13:35:18;11.00;99.90
20728;DHT22;10525;50.154;8.198;2022-12-29T13:37:51;11.00;99.90
20728;DHT22;10525;50.154;8.198;2022-12-29T13:40:22;10.90;99.90
20728;DHT22;10525;50.154;8.198;2022-12-29T13:42:51;11.00;99.90
20728;DHT22;10525;50.154;8.198;2022-12-29T13:45:22;11.10;99.90
20728;DHT22;10525;50.154;8.198;2022-12-29T13:47:53;11.10;99.90
20728;DHT22;10525;50.154;8.198;2022-12-29T13:50:22;11.30;99.90
20728;DHT22;10525;50.154;8.198;2022-12-29T13:52:58;11.30;99.90
20728;DHT22;10525;50.154;8.198;2022-12-29T13:55:33;11.30;99.90
20728;DHT22;10525;50.154;8.198;2022-12-29T13:58:04;11.20;99.90
20728;DHT22;10525;50.154;8.198;2022-12-29T14:00:44;11.10;99.90
20728;DHT22;10525;50.154;8.198;2022-12-29T14:03:24;11.00;99.90
20728;DHT22;10525;50.154;8.198;2022-12-29T14:06:05;10.90;99.90
20728;DHT22;10525;50.154;8.198;2022-12-29T14:08:37;10.90;99.90
20728;DHT22;10525;50.154;8.198;2022-12-29T14:11:07;10.80;99.90
20728;DHT22;10525;50.154;8.198;2022-12-29T14:13:37;10.80;99.90
20728;DHT22;10525;50.154;8.198;2022-12-29T14:16:07;10.80;99.90
20728;DHT22;10525;50.154;8.198;2022-12-29T14:18:42;10.70;99.90
20728;DHT22;10525;50.154;8.198;2022-12-29T14:21:18;10.70;99.90
20728;DHT22;10525;50.154;8.198;2022-12-29T14:23:48;10.70;99.90
20728;DHT22;10525;50.154;8.198;2022-12-29T14:26:17;10.60;99.90
20728;DHT22;10525;50.154;8.198;2022-12-29T14:28:46;10.60;99.90
20728;DHT22;10525;50.154;8.198;2022-12-29T14:31:36;10.50;99.90
20728;DHT22;10525;50.154;8.198;2022-12-29T14:36:59;10.40;99.90
20728;DHT22;10525;50.154;8.198;2022-12-29T14:39:35;10.40;99.90
20728;DHT22;10525;50.154;8.198;2022-12-29T14:42:05;10.30;99.90
20728;DHT22;10525;50.154;8.198;2022-12-29T14:44:33;10.40;99.90
20728;DHT22;10525;50.154;8.198;2022-12-29T14:47:05;10.30;99.90
20728;DHT22;10525;50.154;8.198;2022-12-29T14:49:40;10.20;99.90
20728;DHT22;10525;50.154;8.198;2022-12-29T14:52:15;10.30;99.90
20728;DHT22;10525;50.154;8.198;2022-12-29T14:54:46;10.20;99.90
20728;DHT22;10525;50.154;8.198;2022-12-29T14:57:37;10.10;99.90
20728;DHT22;10525;50.154;8.198;2022-12-29T15:00:15;10.00;99.90
20728;DHT22;10525;50.154;8.198;2022-12-29T15:02:47;9.90;99.90
20728;DHT22;10525;50.154;8.198;2022-12-29T15:05:30;9.90;99.90
20728;DHT22;10525;50.154;8.198;2022-12-29T15:07:58;9.90;99.90
20728;DHT22;10525;50.154;8.198;2022-12-29T15:10:27;9.80;99.90
20728;DHT22;10525;50.154;8.198;2022-12-29T15:13:14;9.80;99.90
20728;DHT22;10525;50.154;8.198;2022-12-29T15:15:41;9.80;99.90
20728;DHT22;10525;50.154;8.198;2022-12-29T15:18:22;9.70;99.90
20728;DHT22;10525;50.154;8.198;2022-12-29T15:20:51;9.60;99.90
20728;DHT22;10525;50.154;8.198;2022-12-29T15:23:19;9.60;99.90
20728;DHT22;10525;50.154;8.198;2022-12-29T15:25:47;9.60;99.90
20728;DHT22;10525;50.154;8.198;2022-12-29T15:28:17;9.60;99.90
20728;DHT22;10525;50.154;8.198;2022-12-29T15:30:51;9.70;99.90
20728;DHT22;10525;50.154;8.198;2022-12-29T15:33:21;9.60;99.90
20728;DHT22;10525;50.154;8.198;2022-12-29T15:35:50;9.60;99.90
20728;DHT22;10525;50.154;8.198;2022-12-29T15:38:21;9.50;99.90
20728;DHT22;10525;50.154;8.198;2022-12-29T15:40:52;9.50;99.90
20728;DHT22;10525;50.154;8.198;2022-12-29T15:43:46;9.50;99.90
20728;DHT22;10525;50.154;8.198;2022-12-29T15:46:15;9.40;99.90
20728;DHT22;10525;50.154;8.198;2022-12-29T15:48:44;9.50;99.90
20728;DHT22;10525;50.154;8.198;2022-12-29T15:51:18;9.50;99.90
20728;DHT22;10525;50.154;8.198;2022-12-29T15:53:47;9.40;99.90
20728;DHT22;10525;50.154;8.198;2022-12-29T15:56:14;9.40;99.90
20728;DHT22;10525;50.154;8.198;2022-12-29T15:58:42;9.40;99.90
20728;DHT22;10525;50.154;8.198;2022-12-29T16:01:18;9.30;99.90
20728;DHT22;10525;50.154;8.198;2022-12-29T16:03:47;9.30;99.90
20728;DHT22;10525;50.154;8.198;2022-12-29T16:06:27;9.20;99.90
20728;DHT22;10525;50.154;8.198;2022-12-29T16:08:59;9.10;99.90
20728;DHT22;10525;50.154;8.198;2022-12-29T16:11:31;9.00;99.90
20728;DHT22;10525;50.154;8.198;2022-12-29T16:13:59;8.90;99.90
20728;DHT22;10525;50.154;8.198;2022-12-29T16:16:29;8.80;99.90
20728;DHT22;10525;50.154;8.198;2022-12-29T16:19:12;8.80;99.90